createdAt,value
2022-09-10T00:08:14.859Z,100860.0
2022-09-10T00:17:50.188Z,100850.0
2022-09-10T00:27:50.193Z,100850.0
2022-09-10T00:37:50.199Z,100850.0
2022-09-10T00:47:50.200Z,100830.0
2022-09-10T00:58:39.649Z,100840.0
2022-09-10T01:07:50.207Z,100850.0
2022-09-10T01:17:50.207Z,100850.0
2022-09-10T01:27:50.214Z,100850.0
2022-09-10T01:37:50.216Z,100860.0
2022-09-10T01:47:50.225Z,100860.0
2022-09-10T01:58:14.894Z,100850.0
2022-09-10T02:17:50.241Z,100840.0
2022-09-10T02:27:50.242Z,100830.0
2022-09-10T02:37:50.249Z,100830.0
2022-09-10T02:47:50.251Z,100840.0
2022-09-10T02:57:50.244Z,100830.0
2022-09-10T03:07:50.253Z,100830.0
2022-09-10T03:17:50.254Z,100830.0
2022-09-10T03:27:50.261Z,100840.0
2022-09-10T03:38:14.933Z,100840.0
2022-09-10T03:57:50.268Z,100830.0
2022-09-10T04:07:50.272Z,100820.0
2022-09-10T04:17:50.279Z,100820.0
2022-09-10T04:27:50.318Z,100810.0
2022-09-10T04:37:50.281Z,100810.0
2022-09-10T04:47:50.283Z,100820.0
2022-09-10T04:58:14.956Z,100830.0
2022-09-10T05:08:14.962Z,100830.0
2022-09-10T05:17:50.299Z,100830.0
2022-09-10T05:27:50.298Z,100830.0
2022-09-10T05:37:50.304Z,100830.0
2022-09-10T05:47:50.306Z,100830.0
2022-09-10T06:07:50.326Z,100840.0
2022-09-10T06:18:14.988Z,100830.0
2022-09-10T06:27:50.315Z,100830.0
2022-09-10T06:37:50.332Z,100840.0
2022-09-10T06:57:50.333Z,100850.0
2022-09-10T07:07:50.335Z,100840.0
2022-09-10T07:18:15.007Z,100840.0
2022-09-10T07:27:50.344Z,100840.0
2022-09-10T07:37:50.344Z,100860.0
2022-09-10T07:47:50.351Z,100860.0
2022-09-10T07:57:50.355Z,100860.0
2022-09-10T08:07:50.354Z,100860.0
2022-09-10T08:18:15.028Z,100870.0
2022-09-10T08:27:50.369Z,100880.0
2022-09-10T08:38:15.040Z,100890.0
2022-09-10T08:47:50.376Z,100900.0
2022-09-10T08:57:50.378Z,100910.0
2022-09-10T09:17:50.391Z,100920.0
2022-09-10T09:28:15.063Z,100930.0
2022-09-10T12:17:50.667Z,100990.0
2022-09-10T13:17:50.689Z,101020.0
2022-09-10T13:57:50.716Z,101040.0
2022-09-10T14:17:50.734Z,101090.0
2022-09-10T14:37:50.727Z,101100.0
2022-09-10T16:58:36.230Z,101240.0
2022-09-10T19:18:36.101Z,101410.0
2022-09-10T19:58:36.090Z,101460.0
2022-09-10T20:57:50.860Z,101510.0
2022-09-10T21:18:36.117Z,101520.0
